Aviation Digital Data Service (ADDS)

Output produced by METARs form (2350 UTC 28 March 2015)
found at http://aviationweather.gov/adds/metars/
 
KGNV 282334Z 2900/2924 33003KT P6SM SKC 
     FM291500 04008KT P6SM SKC